Time;durP1;ratioP1;P1;durP2;ratioP2;P2;SDS_P1;SDS_P2;PMS_P1;PMS_P2;Temp;Humidity;BMP_temperature;BMP_pressure;BME280_temperature;BME280_humidity;BME280_pressure;Samples;Min_cycle;Max_cycle;Signal;HPM_P1;HPM_P2
2024/03/01 00:01:03;;;;;;;21.10;20.20;;;20.70;51.60;;;;;;4983893;28;20513;-63
2024/03/01 00:03:30;;;;;;;20.63;19.83;;;20.70;51.70;;;;;;4982116;28;20452;-64
2024/03/01 00:05:57;;;;;;;20.67;19.87;;;20.70;51.70;;;;;;4984515;28;21075;-64
2024/03/01 00:08:23;;;;;;;20.50;19.70;;;20.70;51.70;;;;;;4984748;28;20447;-64
2024/03/01 00:10:50;;;;;;;20.47;19.63;;;20.70;51.70;;;;;;4980568;28;20463;-64
2024/03/01 00:13:18;;;;;;;20.20;19.40;;;20.60;51.60;;;;;;4980872;28;20475;-64
2024/03/01 00:15:45;;;;;;;20.40;19.50;;;20.70;51.70;;;;;;4983824;28;20443;-64
2024/03/01 00:18:12;;;;;;;21.40;20.50;;;20.60;51.60;;;;;;4984420;28;20439;-64
2024/03/01 00:20:39;;;;;;;21.10;20.20;;;20.60;51.70;;;;;;4981500;28;20477;-64
2024/03/01 00:23:06;;;;;;;21.77;20.77;;;20.60;51.70;;;;;;4980876;28;20435;-63
2024/03/01 00:25:33;;;;;;;22.40;21.33;;;20.60;51.70;;;;;;4982993;28;20451;-64
2024/03/01 00:28:00;;;;;;;20.80;20.00;;;20.60;51.70;;;;;;4981003;28;20874;-64
2024/03/01 00:30:28;;;;;;;20.87;19.83;;;20.60;51.80;;;;;;4980599;28;20467;-64
2024/03/01 00:32:55;;;;;;;20.63;19.83;;;20.60;51.90;;;;;;4986538;28;20436;-64
2024/03/01 00:35:22;;;;;;;20.37;19.57;;;20.50;51.80;;;;;;4981029;28;20451;-64
2024/03/01 00:37:49;;;;;;;20.70;19.80;;;20.50;51.90;;;;;;4984006;28;20435;-65
2024/03/01 00:40:16;;;;;;;20.83;20.03;;;20.50;51.80;;;;;;4984006;28;20466;-64
2024/03/01 00:42:43;;;;;;;20.40;19.60;;;20.50;51.90;;;;;;4977069;28;20964;-63
2024/03/01 00:45:10;;;;;;;20.43;19.43;;;20.50;51.90;;;;;;4984399;28;20459;-64
2024/03/01 00:47:45;;;;;;;21.10;20.20;;;20.50;51.90;;;;;;4981997;28;21022;-64
2024/03/01 00:50:12;;;;;;;21.00;20.10;;;20.50;51.90;;;;;;4985924;28;20798;-64
2024/03/01 00:52:39;;;;;;;21.60;20.70;;;20.50;51.90;;;;;;4981581;28;20469;-64
2024/03/01 00:55:07;;;;;;;22.90;22.00;;;20.50;51.90;;;;;;4980675;28;20550;-64
2024/03/01 00:57:34;;;;;;;21.70;20.90;;;20.40;51.90;;;;;;4972867;28;20440;-64
2024/03/01 01:00:01;;;;;;;21.03;20.20;;;20.40;51.80;;;;;;4972676;28;20442;-64
2024/03/01 01:02:27;;;;;;;20.83;19.93;;;20.40;51.90;;;;;;4972620;28;20444;-64
2024/03/01 01:04:56;;;;;;;20.47;19.67;;;20.40;51.90;;;;;;4972738;28;20440;-64
2024/03/01 01:07:24;;;;;;;21.03;20.13;;;20.40;51.90;;;;;;4972628;28;20575;-64
2024/03/01 01:09:51;;;;;;;20.90;20.00;;;20.40;51.90;;;;;;4973841;28;20653;-64
2024/03/01 01:12:18;;;;;;;20.30;19.60;;;20.40;52.00;;;;;;4999553;23;20527;-63
2024/03/01 01:14:44;;;;;;;20.47;19.67;;;20.40;52.00;;;;;;4972347;28;20447;-64
2024/03/01 01:17:11;;;;;;;20.90;19.93;;;20.40;52.00;;;;;;4972389;28;20440;-64
2024/03/01 01:19:38;;;;;;;20.73;19.93;;;20.40;52.10;;;;;;4972339;28;20448;-63
2024/03/01 01:22:06;;;;;;;20.67;19.83;;;20.40;52.00;;;;;;4972134;28;20455;-64
2024/03/01 01:24:33;;;;;;;20.07;19.27;;;20.40;52.10;;;;;;4972214;28;20454;-64
2024/03/01 01:27:01;;;;;;;20.20;19.30;;;20.30;52.00;;;;;;4972434;28;20488;-63
2024/03/01 01:29:28;;;;;;;20.90;20.00;;;20.30;52.00;;;;;;4972530;28;20448;-63
2024/03/01 01:31:55;;;;;;;20.10;19.30;;;20.30;52.10;;;;;;4975766;28;20460;-61
2024/03/01 01:34:21;;;;;;;20.27;19.47;;;20.30;52.10;;;;;;4976045;28;20451;-64
2024/03/01 01:36:48;;;;;;;19.97;19.20;;;20.30;52.00;;;;;;4975863;28;20450;-64
2024/03/01 01:39:16;;;;;;;19.80;19.00;;;20.30;52.00;;;;;;4975911;28;21009;-64
2024/03/01 01:41:43;;;;;;;21.13;20.23;;;20.30;52.10;;;;;;4980726;28;20478;-64
2024/03/01 01:44:10;;;;;;;20.00;19.20;;;20.30;52.10;;;;;;4975745;28;20454;-63
2024/03/01 01:46:37;;;;;;;20.37;19.57;;;20.30;52.10;;;;;;4975784;28;20494;-64
2024/03/01 01:49:04;;;;;;;20.63;19.73;;;20.30;52.10;;;;;;4975708;28;20440;-64
2024/03/01 01:51:31;;;;;;;20.10;19.30;;;20.30;52.10;;;;;;4975377;28;20478;-65
2024/03/01 01:53:58;;;;;;;20.80;20.00;;;20.30;52.10;;;;;;4975535;28;20952;-63
2024/03/01 01:56:27;;;;;;;20.67;19.87;;;20.30;52.10;;;;;;4975756;28;20443;-64
2024/03/01 01:58:54;;;;;;;21.13;20.23;;;20.30;52.10;;;;;;4977696;28;20444;-64
2024/03/01 02:01:21;;;;;;;20.37;19.57;;;20.20;52.10;;;;;;4974959;28;20482;-64
2024/03/01 02:03:48;;;;;;;20.20;19.40;;;20.20;52.10;;;;;;4975439;28;20830;-63
2024/03/01 02:06:15;;;;;;;20.60;19.80;;;20.20;52.10;;;;;;4975461;28;20451;-64
2024/03/01 02:08:42;;;;;;;20.70;19.80;;;20.30;52.20;;;;;;4975372;28;20443;-64
2024/03/01 02:11:09;;;;;;;22.47;21.40;;;20.20;52.10;;;;;;4977768;28;20986;-64
2024/03/01 02:13:37;;;;;;;20.53;19.63;;;20.20;52.10;;;;;;4980151;28;20542;-64
2024/03/01 02:16:05;;;;;;;19.93;19.13;;;20.20;52.10;;;;;;4975359;28;20454;-64
2024/03/01 02:18:33;;;;;;;21.03;20.13;;;20.20;52.20;;;;;;4976938;28;20447;-65
2024/03/01 02:21:05;;;;;;;20.60;19.60;;;20.20;52.20;;;;;;4974736;28;20491;-65
2024/03/01 02:23:34;;;;;;;21.10;20.20;;;20.20;52.20;;;;;;4975041;28;20451;-64
2024/03/01 02:26:00;;;;;;;20.63;19.83;;;20.20;52.30;;;;;;4975122;28;20455;-63
2024/03/01 02:28:27;;;;;;;20.07;19.37;;;20.20;52.30;;;;;;4975094;28;20486;-64
2024/03/01 02:30:54;;;;;;;20.03;19.23;;;20.20;52.30;;;;;;4974416;28;20883;-64
2024/03/01 02:33:21;;;;;;;20.90;19.93;;;20.20;52.30;;;;;;4975032;28;20451;-64
2024/03/01 02:35:48;;;;;;;22.77;21.87;;;20.20;52.30;;;;;;4974775;28;20855;-64
2024/03/01 02:38:15;;;;;;;21.60;20.70;;;20.20;52.30;;;;;;4974752;28;20448;-63
2024/03/01 02:40:43;;;;;;;20.50;19.70;;;20.20;52.30;;;;;;4974972;28;20831;-65
2024/03/01 02:43:10;;;;;;;20.73;19.93;;;20.10;52.30;;;;;;4974453;28;20443;-64
2024/03/01 02:45:37;;;;;;;20.80;20.00;;;20.10;52.30;;;;;;4974506;28;20811;-63
2024/03/01 02:48:04;;;;;;;20.30;19.50;;;20.10;52.30;;;;;;4974548;28;20570;-65
2024/03/01 02:50:31;;;;;;;21.03;20.13;;;20.20;52.40;;;;;;4975290;28;20468;-64
2024/03/01 02:52:58;;;;;;;20.40;19.60;;;20.20;52.40;;;;;;4966745;28;20451;-64
2024/03/01 02:55:24;;;;;;;21.20;20.30;;;20.10;52.30;;;;;;4974448;28;20444;-63
2024/03/01 02:57:55;;;;;;;21.43;20.53;;;20.10;52.40;;;;;;4974324;28;20834;-65
2024/03/01 03:00:22;;;;;;;21.10;20.30;;;20.10;52.30;;;;;;4974553;28;20436;-65
2024/03/01 03:02:51;;;;;;;20.50;19.70;;;20.10;52.40;;;;;;4973941;28;20452;-65
2024/03/01 03:05:18;;;;;;;20.70;19.90;;;20.10;52.30;;;;;;4974344;28;20458;-63
2024/03/01 03:07:46;;;;;;;20.83;20.03;;;20.10;52.40;;;;;;4974327;28;21000;-64
2024/03/01 03:10:14;;;;;;;21.53;20.63;;;20.10;52.40;;;;;;4974222;28;20480;-65
2024/03/01 03:12:41;;;;;;;21.03;20.13;;;20.10;52.40;;;;;;4973768;28;20526;-65
2024/03/01 03:15:10;;;;;;;21.17;20.27;;;20.10;52.50;;;;;;4974196;28;20444;-65
2024/03/01 03:17:36;;;;;;;21.13;20.23;;;20.10;52.40;;;;;;4974649;28;21023;-66
2024/03/01 03:20:09;;;;;;;21.20;20.40;;;20.10;52.50;;;;;;4974129;28;20451;-65
2024/03/01 03:22:37;;;;;;;20.50;19.70;;;20.10;52.40;;;;;;4973523;28;20477;-64
2024/03/01 03:25:05;;;;;;;20.30;19.50;;;20.10;52.50;;;;;;4974006;28;20858;-65
2024/03/01 03:27:32;;;;;;;21.40;20.60;;;20.10;52.50;;;;;;4976995;28;20479;-65
2024/03/01 03:29:58;;;;;;;21.10;20.30;;;20.00;52.50;;;;;;4965986;28;20440;-65
2024/03/01 03:32:26;;;;;;;21.17;20.27;;;20.10;52.50;;;;;;4973368;28;20468;-65
2024/03/01 03:34:53;;;;;;;21.17;20.27;;;20.10;52.50;;;;;;4973755;28;20949;-65
2024/03/01 03:37:20;;;;;;;20.67;19.87;;;20.00;52.50;;;;;;4974106;28;20448;-63
2024/03/01 03:39:47;;;;;;;21.43;20.63;;;20.10;52.60;;;;;;4973609;28;20560;-63
2024/03/01 03:42:14;;;;;;;21.00;20.20;;;20.00;52.50;;;;;;4973268;28;20530;-63
2024/03/01 03:44:41;;;;;;;21.60;20.70;;;20.00;52.50;;;;;;4973769;28;20455;-63
2024/03/01 03:47:08;;;;;;;21.30;20.40;;;20.10;52.60;;;;;;4976407;28;20490;-64
2024/03/01 03:49:36;;;;;;;23.30;22.30;;;20.00;52.50;;;;;;4973458;28;20531;-65
2024/03/01 03:52:03;;;;;;;20.93;20.07;;;20.00;52.50;;;;;;4973037;28;20582;-64
2024/03/01 03:54:30;;;;;;;20.80;19.97;;;20.10;52.60;;;;;;4973328;28;20822;-64
2024/03/01 03:56:57;;;;;;;20.60;19.80;;;20.00;52.50;;;;;;4973193;28;20440;-64
2024/03/01 03:59:24;;;;;;;21.40;20.50;;;20.00;52.50;;;;;;4973342;28;20451;-64
2024/03/01 04:01:51;;;;;;;21.90;20.90;;;20.00;52.50;;;;;;4972813;28;20468;-64
2024/03/01 04:04:16;;;;;;;21.33;20.43;;;20.00;52.50;;;;;;4973219;28;21152;-64
2024/03/01 04:06:44;;;;;;;22.00;21.10;;;20.00;52.50;;;;;;4975487;28;20451;-63
2024/03/01 04:09:12;;;;;;;23.20;22.13;;;20.10;52.60;;;;;;4973190;28;20209;-63
2024/03/01 04:11:40;;;;;;;21.80;20.90;;;20.00;52.60;;;;;;4972444;28;20534;-64
2024/03/01 04:14:09;;;;;;;21.97;20.97;;;20.00;52.60;;;;;;4977000;28;20808;-63
2024/03/01 04:16:36;;;;;;;22.17;21.27;;;20.00;52.60;;;;;;4976391;28;21007;-65
2024/03/01 04:19:02;;;;;;;21.17;20.27;;;20.00;52.60;;;;;;4973013;28;20440;-63
2024/03/01 04:21:30;;;;;;;22.07;21.17;;;20.00;52.60;;;;;;4972462;28;20474;-64
2024/03/01 04:23:58;;;;;;;22.33;21.43;;;20.00;52.60;;;;;;4973193;28;20483;-63
2024/03/01 04:26:25;;;;;;;21.63;20.73;;;20.00;52.60;;;;;;4972929;28;20455;-63
2024/03/01 04:28:51;;;;;;;21.97;20.97;;;20.00;52.70;;;;;;4972674;28;20868;-65
2024/03/01 04:31:18;;;;;;;21.60;20.63;;;20.00;52.60;;;;;;4972585;28;20464;-64
2024/03/01 04:33:46;;;;;;;21.33;20.53;;;20.00;52.60;;;;;;4973340;28;20447;-65
2024/03/01 04:36:13;;;;;;;21.40;20.50;;;20.00;52.70;;;;;;4979194;28;20448;-65
2024/03/01 04:38:40;;;;;;;21.23;20.23;;;20.00;52.70;;;;;;4972657;28;20436;-64
2024/03/01 04:41:15;;;;;;;20.80;20.00;;;20.00;52.80;;;;;;4972481;28;20491;-64
2024/03/01 04:43:42;;;;;;;21.00;20.20;;;20.00;52.80;;;;;;4972830;28;20471;-65
2024/03/01 04:46:08;;;;;;;21.10;20.30;;;20.00;52.80;;;;;;4965522;28;20447;-64
2024/03/01 04:48:36;;;;;;;22.37;21.00;;;20.00;52.80;;;;;;4972604;28;20486;-65
2024/03/01 04:51:08;;;;;;;21.30;20.40;;;20.00;52.90;;;;;;4964302;28;20929;-64
2024/03/01 04:53:35;;;;;;;20.90;20.10;;;20.00;53.00;;;;;;4972622;28;20435;-63
2024/03/01 04:56:01;;;;;;;21.80;20.90;;;20.00;53.10;;;;;;4972686;28;20440;-64
2024/03/01 04:58:29;;;;;;;21.60;20.70;;;20.00;53.20;;;;;;4972669;28;20443;-63
2024/03/01 05:00:57;;;;;;;21.63;20.63;;;20.00;53.10;;;;;;4972198;28;20464;-64
2024/03/01 05:03:25;;;;;;;22.47;21.37;;;20.00;53.20;;;;;;4972537;28;20450;-64
2024/03/01 05:05:53;;;;;;;22.20;21.20;;;20.00;53.50;;;;;;4979251;28;20451;-64
2024/03/01 05:08:20;;;;;;;22.90;21.90;;;20.00;53.70;;;;;;4976425;28;20491;-64
2024/03/01 05:10:49;;;;;;;23.20;22.30;;;20.00;53.80;;;;;;4975956;28;20533;-64
2024/03/01 05:13:16;;;;;;;22.30;21.30;;;20.00;54.00;;;;;;4976478;28;20903;-63
2024/03/01 05:15:45;;;;;;;22.20;21.27;;;20.00;54.10;;;;;;4976391;28;20447;-63
2024/03/01 05:18:12;;;;;;;22.23;21.23;;;20.00;54.10;;;;;;4969474;28;20444;-64
2024/03/01 05:20:38;;;;;;;21.93;20.93;;;20.00;54.20;;;;;;4975760;28;20468;-65
2024/03/01 05:23:06;;;;;;;22.90;21.90;;;20.00;54.20;;;;;;4968336;28;20451;-64
2024/03/01 05:25:33;;;;;;;22.97;21.90;;;20.00;54.20;;;;;;4981754;28;20448;-64
2024/03/01 05:28:00;;;;;;;22.00;21.00;;;20.00;54.30;;;;;;4975995;28;20499;-63
2024/03/01 05:30:26;;;;;;;21.80;20.90;;;20.00;54.40;;;;;;4975648;28;20451;-63
2024/03/01 05:32:55;;;;;;;23.30;22.13;;;20.00;54.40;;;;;;4975972;28;20455;-63
2024/03/01 05:35:22;;;;;;;22.40;21.40;;;20.00;54.30;;;;;;4976239;28;20474;-61
2024/03/01 05:37:49;;;;;;;22.50;21.57;;;20.00;54.40;;;;;;4975788;28;20444;-63
2024/03/01 05:40:16;;;;;;;22.70;21.70;;;20.00;54.40;;;;;;4975810;28;20451;-63
2024/03/01 05:42:44;;;;;;;22.93;21.83;;;20.00;54.40;;;;;;4975428;28;20443;-63
2024/03/01 05:45:12;;;;;;;22.43;21.50;;;20.00;54.50;;;;;;4981295;28;20471;-63
2024/03/01 05:47:40;;;;;;;23.03;21.93;;;20.00;54.60;;;;;;4975875;28;20490;-63
2024/03/01 05:50:11;;;;;;;23.77;22.67;;;20.00;54.20;;;;;;4967869;28;20817;-64
2024/03/01 05:52:39;;;;;;;23.70;22.40;;;20.00;53.30;;;;;;4975463;28;20510;-63
2024/03/01 05:55:08;;;;;;;22.93;21.40;;;20.00;53.60;;;;;;4976020;28;20439;-63
2024/03/01 05:57:35;;;;;;;22.60;21.70;;;20.00;54.10;;;;;;4975632;28;20444;-62
2024/03/01 06:00:09;;;;;;;24.67;23.47;;;20.10;54.40;;;;;;4975406;28;20440;-62
2024/03/01 06:02:36;;;;;;;23.60;22.50;;;20.10;55.00;;;;;;4975262;28;20443;-63
2024/03/01 06:05:03;;;;;;;21.90;21.00;;;20.00;54.30;;;;;;4980345;28;20944;-63
2024/03/01 06:07:31;;;;;;;22.93;21.93;;;20.00;54.30;;;;;;4975302;28;20444;-63
2024/03/01 06:09:58;;;;;;;23.80;22.60;;;20.00;54.30;;;;;;4975248;28;20470;-63
2024/03/01 06:12:24;;;;;;;23.57;22.47;;;20.00;54.80;;;;;;4974908;28;21039;-63
2024/03/01 06:14:51;;;;;;;23.70;22.50;;;20.00;54.20;;;;;;4975340;28;20816;-63
2024/03/01 06:17:18;;;;;;;24.00;22.67;;;20.00;54.30;;;;;;4975216;28;20937;-63
2024/03/01 06:19:45;;;;;;;25.93;24.53;;;20.00;54.80;;;;;;4974438;28;20451;-63
2024/03/01 06:22:11;;;;;;;22.70;21.63;;;20.00;54.60;;;;;;4974839;28;20474;-63
2024/03/01 06:24:39;;;;;;;22.50;21.47;;;20.00;54.40;;;;;;4978267;28;20447;-63
2024/03/01 06:27:06;;;;;;;23.90;22.77;;;20.00;55.30;;;;;;4975111;28;20447;-64
2024/03/01 06:29:33;;;;;;;23.77;22.33;;;20.00;56.60;;;;;;4975025;28;20484;-63
2024/03/01 06:32:00;;;;;;;24.30;22.47;;;20.00;58.20;;;;;;4974507;28;20479;-63
2024/03/01 06:34:27;;;;;;;24.83;22.93;;;20.00;59.40;;;;;;4975068;28;20994;-63
2024/03/01 06:36:53;;;;;;;24.30;22.90;;;20.00;60.30;;;;;;4974813;28;20833;-62
2024/03/01 06:39:20;;;;;;;25.03;23.20;;;20.00;59.90;;;;;;4974879;28;20440;-61
2024/03/01 06:41:48;;;;;;;25.00;23.20;;;20.10;59.20;;;;;;4974217;28;20468;-62
2024/03/01 06:44:20;;;;;;;26.17;23.57;;;20.00;59.20;;;;;;4976315;28;20994;-68
2024/03/01 06:46:47;;;;;;;24.60;22.90;;;20.10;59.80;;;;;;4974536;28;20513;-72
2024/03/01 06:49:13;;;;;;;25.20;23.60;;;20.10;60.10;;;;;;4974609;28;20487;-66
2024/03/01 06:51:40;;;;;;;25.10;23.17;;;20.10;60.20;;;;;;4974194;28;20468;-66
2024/03/01 06:54:07;;;;;;;25.00;23.50;;;20.10;60.00;;;;;;4974402;28;20447;-66
2024/03/01 06:56:33;;;;;;;24.77;23.47;;;20.10;59.80;;;;;;4974478;28;20816;-66
2024/03/01 06:59:02;;;;;;;26.17;24.50;;;20.10;59.50;;;;;;4974284;28;20440;-66
2024/03/01 07:01:29;;;;;;;24.53;22.83;;;20.10;59.30;;;;;;4973856;28;20471;-66
2024/03/01 07:03:56;;;;;;;24.30;22.60;;;20.10;59.00;;;;;;4974247;28;20447;-68
2024/03/01 07:06:22;;;;;;;25.40;24.00;;;20.10;58.80;;;;;;4974279;28;20448;-68
2024/03/01 07:08:49;;;;;;;25.30;23.03;;;20.10;58.60;;;;;;4974060;28;20553;-66
2024/03/01 07:11:16;;;;;;;23.73;22.50;;;20.10;58.40;;;;;;5022024;23;20490;-69
2024/03/01 07:13:43;;;;;;;25.10;23.70;;;20.10;58.20;;;;;;4985905;28;20458;-68
2024/03/01 07:16:11;;;;;;;26.13;24.63;;;20.10;58.10;;;;;;4974295;28;20444;-68
2024/03/01 07:18:38;;;;;;;24.53;23.00;;;20.10;58.00;;;;;;4982151;28;20475;-68
2024/03/01 07:21:07;;;;;;;25.83;24.20;;;20.10;57.90;;;;;;4984442;28;21045;-68
2024/03/01 07:23:34;;;;;;;25.67;24.30;;;20.10;57.70;;;;;;4985438;28;20455;-68
2024/03/01 07:26:00;;;;;;;25.47;23.90;;;20.10;57.60;;;;;;4983025;28;20445;-68
2024/03/01 07:28:27;;;;;;;24.07;22.80;;;20.10;57.50;;;;;;4981700;28;20867;-68
2024/03/01 07:30:54;;;;;;;24.27;22.77;;;20.10;57.50;;;;;;4981699;28;20475;-68
2024/03/01 07:33:22;;;;;;;24.20;22.70;;;20.10;57.40;;;;;;4985218;28;20952;-68
2024/03/01 07:35:49;;;;;;;24.77;23.43;;;20.10;57.30;;;;;;4984356;28;20819;-68
2024/03/01 07:38:16;;;;;;;25.57;24.23;;;20.10;57.30;;;;;;4981775;28;20444;-68
2024/03/01 07:40:43;;;;;;;25.17;23.70;;;20.10;57.20;;;;;;4981428;28;20929;-68
2024/03/01 07:43:10;;;;;;;25.83;24.53;;;20.10;57.10;;;;;;4984828;28;20447;-68
2024/03/01 07:45:37;;;;;;;25.30;24.10;;;20.10;57.10;;;;;;4984927;28;20960;-68
2024/03/01 07:48:05;;;;;;;26.40;24.53;;;20.10;57.00;;;;;;4982295;28;20966;-68
2024/03/01 07:50:33;;;;;;;26.70;25.10;;;20.10;57.00;;;;;;4981109;28;20841;-68
2024/03/01 07:53:00;;;;;;;27.73;26.13;;;20.10;56.90;;;;;;4983238;28;20444;-68
2024/03/01 07:55:27;;;;;;;27.40;25.80;;;20.10;56.90;;;;;;4984582;28;20815;-68
2024/03/01 07:57:55;;;;;;;26.50;24.80;;;20.10;56.80;;;;;;4983408;28;20447;-68
2024/03/01 08:00:23;;;;;;;25.47;24.00;;;20.00;56.70;;;;;;4981339;28;20459;-68
2024/03/01 08:03:01;;;;;;;26.00;24.33;;;20.10;56.80;;;;;;4981232;28;20470;-68
2024/03/01 08:05:28;;;;;;;25.83;24.13;;;20.10;56.70;;;;;;4984624;28;20815;-68
2024/03/01 08:07:56;;;;;;;25.80;24.30;;;20.10;56.70;;;;;;4983276;28;20447;-68
2024/03/01 08:10:23;;;;;;;25.50;24.20;;;20.00;56.50;;;;;;4981050;28;20458;-68
2024/03/01 08:12:51;;;;;;;25.57;24.40;;;20.00;56.50;;;;;;4981047;28;20471;-68
2024/03/01 08:15:25;;;;;;;26.20;24.70;;;20.00;56.50;;;;;;4984338;28;20447;-68
2024/03/01 08:17:51;;;;;;;25.53;24.10;;;20.00;56.40;;;;;;4983780;28;20450;-68
2024/03/01 08:20:38;;;;;;;25.63;24.33;;;20.00;56.40;;;;;;4980975;28;20448;-68
2024/03/01 08:23:06;;;;;;;26.17;24.80;;;20.00;56.30;;;;;;4983288;28;20452;-68
2024/03/01 08:25:35;;;;;;;26.50;25.07;;;20.10;56.40;;;;;;4984455;28;20451;-68
2024/03/01 08:28:01;;;;;;;27.80;26.20;;;20.00;56.30;;;;;;4982264;28;20454;-68
2024/03/01 08:30:43;;;;;;;26.17;24.63;;;20.00;56.30;;;;;;4980471;28;20459;-68
2024/03/01 08:33:12;;;;;;;24.80;23.70;;;20.10;56.30;;;;;;4983748;28;20453;-68
2024/03/01 08:35:42;;;;;;;26.20;24.80;;;20.00;56.20;;;;;;4984232;28;20447;-68
2024/03/01 08:38:42;;;;;;;24.93;23.70;;;20.00;56.20;;;;;;4981430;28;20451;-68
2024/03/01 08:41:11;;;;;;;25.60;24.10;;;20.00;56.20;;;;;;4976267;28;20992;-68
2024/03/01 08:43:40;;;;;;;25.40;23.90;;;20.00;56.20;;;;;;4980769;28;20450;-68
2024/03/01 08:46:20;;;;;;;24.90;23.70;;;20.00;56.20;;;;;;4983181;28;20443;-68
2024/03/01 08:48:47;;;;;;;24.70;23.40;;;20.00;56.20;;;;;;4983974;28;20474;-68
2024/03/01 08:51:14;;;;;;;25.30;24.00;;;20.00;56.10;;;;;;4972440;28;20526;-68
2024/03/01 08:53:57;;;;;;;24.23;23.13;;;20.00;56.10;;;;;;4980673;28;20447;-68
2024/03/01 08:56:31;;;;;;;25.00;23.37;;;20.00;56.10;;;;;;4974076;28;20824;-67
2024/03/01 08:58:58;;;;;;;25.70;24.43;;;20.00;56.00;;;;;;4981593;28;20495;-68
2024/03/01 09:01:48;;;;;;;25.60;24.40;;;20.00;56.00;;;;;;4983476;28;20470;-68
2024/03/01 09:04:24;;;;;;;25.80;24.50;;;20.00;55.90;;;;;;4982473;28;20459;-68
2024/03/01 09:07:09;;;;;;;26.57;25.23;;;20.00;55.80;;;;;;4983652;28;20450;-68
2024/03/01 09:09:36;;;;;;;23.67;22.63;;;20.00;55.80;;;;;;4980481;28;20513;-68
2024/03/01 09:12:09;;;;;;;24.40;23.30;;;20.00;55.70;;;;;;4981888;28;20539;-68
2024/03/01 09:14:36;;;;;;;24.47;23.20;;;19.90;55.70;;;;;;4983811;28;20497;-68
2024/03/01 09:17:05;;;;;;;24.63;23.37;;;19.90;56.10;;;;;;4982059;28;20443;-68
2024/03/01 09:19:38;;;;;;;25.37;24.00;;;19.90;55.60;;;;;;4980434;28;20444;-67
2024/03/01 09:22:05;;;;;;;24.77;23.67;;;19.90;55.50;;;;;;4981856;28;20471;-68
2024/03/01 09:24:36;;;;;;;23.63;22.50;;;19.90;55.50;;;;;;4983639;28;20958;-68
2024/03/01 09:27:09;;;;;;;24.40;23.30;;;19.90;55.50;;;;;;4981912;28;20450;-67
2024/03/01 09:29:38;;;;;;;24.13;22.83;;;19.90;55.40;;;;;;4980322;28;20506;-67
2024/03/01 09:32:06;;;;;;;23.97;22.97;;;19.90;55.40;;;;;;4981785;28;20472;-67
2024/03/01 09:34:37;;;;;;;24.47;23.27;;;19.90;55.40;;;;;;4983565;28;20530;-67
2024/03/01 09:37:07;;;;;;;24.60;23.40;;;19.90;55.30;;;;;;4981772;28;20450;-67
2024/03/01 09:39:35;;;;;;;24.10;22.90;;;19.90;55.20;;;;;;4980094;28;20875;-68
2024/03/01 09:42:22;;;;;;;23.87;22.87;;;19.90;55.10;;;;;;4981288;28;20471;-67
2024/03/01 09:45:02;;;;;;;24.63;23.50;;;19.90;55.00;;;;;;4983550;28;20446;-68
2024/03/01 09:47:39;;;;;;;24.50;23.50;;;19.90;55.00;;;;;;4974004;28;20450;-68
2024/03/01 09:50:24;;;;;;;25.30;24.20;;;19.90;55.00;;;;;;4981866;28;20494;-68
2024/03/01 09:53:02;;;;;;;24.50;23.40;;;19.90;54.90;;;;;;4983205;28;20474;-68
2024/03/01 09:55:44;;;;;;;24.63;23.53;;;19.90;55.00;;;;;;4977317;28;20455;-68
2024/03/01 09:58:20;;;;;;;24.00;23.00;;;19.90;55.00;;;;;;4986272;28;20836;-68
2024/03/01 10:00:59;;;;;;;24.20;23.10;;;19.90;55.00;;;;;;4986490;28;20446;-68
2024/03/01 10:03:33;;;;;;;25.00;23.87;;;19.80;54.90;;;;;;4976829;28;20639;-68
2024/03/01 10:06:22;;;;;;;25.27;24.07;;;19.80;54.90;;;;;;4984502;28;20457;-68
2024/03/01 10:09:04;;;;;;;23.93;22.83;;;19.90;55.00;;;;;;4986565;28;20999;-68
2024/03/01 10:11:44;;;;;;;24.10;23.00;;;19.90;55.00;;;;;;4976684;28;20471;-68
2024/03/01 10:14:21;;;;;;;24.70;23.30;;;19.90;55.00;;;;;;4985682;28;20447;-68
2024/03/01 10:17:00;;;;;;;23.03;22.10;;;19.90;55.00;;;;;;4986719;28;20465;-68
2024/03/01 10:19:41;;;;;;;24.33;23.33;;;19.80;54.90;;;;;;4976484;28;20444;-68
2024/03/01 10:22:21;;;;;;;24.50;23.50;;;19.80;54.90;;;;;;4984662;28;20999;-68
2024/03/01 10:25:11;;;;;;;24.13;23.00;;;19.80;54.90;;;;;;4986570;28;20446;-68
2024/03/01 10:27:41;;;;;;;24.10;23.10;;;19.80;54.80;;;;;;4977694;28;20528;-68
2024/03/01 10:30:16;;;;;;;25.40;24.10;;;19.80;54.80;;;;;;4984843;28;20486;-68
2024/03/01 10:33:04;;;;;;;24.40;23.40;;;19.80;54.70;;;;;;4985955;28;20462;-68
2024/03/01 10:35:45;;;;;;;24.43;23.53;;;19.80;54.70;;;;;;4976674;28;20448;-68
2024/03/01 10:38:22;;;;;;;23.60;22.63;;;19.80;54.70;;;;;;4985396;28;20448;-67
2024/03/01 10:40:59;;;;;;;24.97;23.83;;;19.80;54.60;;;;;;4985885;28;20458;-68
2024/03/01 10:43:33;;;;;;;23.90;22.90;;;19.80;54.60;;;;;;4975801;28;20928;-68
2024/03/01 10:46:11;;;;;;;24.20;23.10;;;19.80;54.60;;;;;;4983483;28;20449;-68
2024/03/01 10:48:49;;;;;;;23.00;22.10;;;19.80;54.50;;;;;;4986148;28;20443;-68
2024/03/01 10:51:18;;;;;;;23.57;22.67;;;19.80;54.50;;;;;;4982705;28;20466;-68
2024/03/01 10:53:50;;;;;;;24.70;23.63;;;19.80;54.40;;;;;;4982687;28;20498;-68
2024/03/01 10:56:20;;;;;;;23.50;22.60;;;19.80;54.40;;;;;;4985416;28;20490;-68
2024/03/01 10:58:54;;;;;;;24.03;22.90;;;19.80;54.40;;;;;;4986907;28;20450;-68
2024/03/01 11:01:28;;;;;;;23.33;22.33;;;19.80;54.40;;;;;;4974726;28;20466;-68
2024/03/01 11:03:59;;;;;;;24.00;23.00;;;19.80;54.30;;;;;;4983058;28;21032;-68
2024/03/01 11:06:33;;;;;;;23.30;22.40;;;19.80;54.30;;;;;;4976322;28;20444;-69
2024/03/01 11:09:03;;;;;;;24.03;23.03;;;19.80;54.20;;;;;;4983563;28;20822;-68
2024/03/01 11:11:36;;;;;;;23.23;22.20;;;19.80;54.20;;;;;;4986475;28;20497;-68
2024/03/01 11:14:06;;;;;;;23.10;22.20;;;19.80;54.20;;;;;;4985406;28;20447;-69
2024/03/01 11:16:37;;;;;;;23.20;22.30;;;19.80;54.20;;;;;;4983343;28;20455;-68
2024/03/01 11:19:09;;;;;;;23.20;22.20;;;19.80;54.20;;;;;;4984637;28;20452;-68
2024/03/01 11:21:38;;;;;;;22.80;21.90;;;19.70;54.10;;;;;;4985315;28;20462;-68
2024/03/01 11:24:15;;;;;;;22.93;22.03;;;19.70;54.00;;;;;;4985791;28;20453;-68
2024/03/01 11:26:43;;;;;;;23.00;22.10;;;19.70;54.00;;;;;;4983319;28;20440;-68
2024/03/01 11:29:19;;;;;;;24.27;23.27;;;19.80;54.10;;;;;;4985310;28;20946;-68
2024/03/01 11:31:55;;;;;;;22.23;21.43;;;19.80;54.00;;;;;;4989905;28;20458;-68
2024/03/01 11:34:29;;;;;;;23.63;22.73;;;19.70;53.90;;;;;;4992408;28;21003;-68
2024/03/01 11:37:05;;;;;;;23.73;22.73;;;19.70;53.80;;;;;;4989168;28;20473;-68
2024/03/01 11:39:39;;;;;;;23.23;22.33;;;19.70;53.80;;;;;;4975237;28;20491;-68
2024/03/01 11:42:17;;;;;;;23.30;22.40;;;19.70;53.80;;;;;;4982395;28;20459;-67
2024/03/01 11:44:55;;;;;;;22.73;21.83;;;19.70;53.80;;;;;;4985143;28;20496;-67
2024/03/01 11:47:38;;;;;;;23.40;22.50;;;19.70;53.70;;;;;;4973687;28;20439;-67
2024/03/01 11:50:26;;;;;;;23.37;22.47;;;19.70;53.80;;;;;;4982550;28;20479;-67
2024/03/01 11:53:14;;;;;;;23.37;22.37;;;19.70;53.80;;;;;;4984592;28;20447;-67
2024/03/01 11:56:05;;;;;;;23.23;22.33;;;19.70;53.90;;;;;;4975869;28;20444;-67
2024/03/01 11:58:37;;;;;;;23.20;22.30;;;19.70;53.90;;;;;;4974731;28;20499;-67
2024/03/01 12:01:20;;;;;;;24.63;23.47;;;19.70;53.90;;;;;;4981770;28;20495;-67
2024/03/01 12:04:29;;;;;;;23.00;22.10;;;19.70;53.90;;;;;;4984715;28;20471;-67
2024/03/01 12:07:19;;;;;;;24.30;23.40;;;19.70;53.90;;;;;;4977789;28;20448;-67
2024/03/01 12:10:01;;;;;;;23.07;22.17;;;19.70;53.80;;;;;;4976273;28;20483;-68
2024/03/01 12:12:39;;;;;;;23.17;22.27;;;19.70;53.90;;;;;;4973203;28;20471;-68
2024/03/01 12:15:08;;;;;;;22.80;21.90;;;19.70;53.90;;;;;;4982015;28;20451;-67
2024/03/01 12:17:42;;;;;;;24.57;23.37;;;19.70;53.90;;;;;;4983980;28;20451;-68
2024/03/01 12:20:14;;;;;;;23.27;22.37;;;19.70;53.80;;;;;;4982995;28;20494;-68
2024/03/01 12:23:06;;;;;;;24.30;23.30;;;19.70;53.90;;;;;;4981381;28;20818;-68
2024/03/01 12:25:33;;;;;;;24.43;23.43;;;19.70;53.90;;;;;;4974507;28;20452;-68
2024/03/01 12:28:13;;;;;;;23.10;22.17;;;19.70;53.90;;;;;;4981283;28;20459;-68
2024/03/01 12:30:45;;;;;;;23.00;22.10;;;19.70;53.90;;;;;;4984105;28;20478;-68
2024/03/01 12:33:25;;;;;;;22.80;21.90;;;19.70;54.00;;;;;;4982755;28;20458;-68
2024/03/01 12:35:58;;;;;;;22.70;21.83;;;19.70;54.00;;;;;;4981037;28;20503;-68
2024/03/01 12:38:29;;;;;;;22.37;21.47;;;19.70;54.00;;;;;;4972905;28;20440;-68
2024/03/01 12:41:09;;;;;;;22.90;22.03;;;19.70;54.00;;;;;;4980532;28;20460;-68
2024/03/01 12:43:58;;;;;;;24.00;22.90;;;19.70;54.00;;;;;;4974562;28;20456;-68